sensor_id;sensor_type;location;lat;lon;timestamp;pressure;altitude;pressure_sealevel;temperature;humidity
11682;BME280;5897;42.640;23.310;2022-07-04T00:01:20;94164.56;;;22.64;61.78
11682;BME280;5897;42.640;23.310;2022-07-04T00:03:47;94160.59;;;22.70;61.64
11682;BME280;5897;42.640;23.310;2022-07-04T00:06:14;94164.59;;;22.75;62.14
11682;BME280;5897;42.640;23.310;2022-07-04T00:08:41;94158.84;;;22.78;62.25
11682;BME280;5897;42.640;23.310;2022-07-04T00:11:07;94169.59;;;22.71;62.39
11682;BME280;5897;42.640;23.310;2022-07-04T00:13:35;94169.13;;;22.78;63.65
11682;BME280;5897;42.640;23.310;2022-07-04T00:16:03;94155.09;;;22.76;63.49
11682;BME280;5897;42.640;23.310;2022-07-04T00:18:29;94173.38;;;22.79;63.44
11682;BME280;5897;42.640;23.310;2022-07-04T00:20:56;94167.59;;;22.77;63.32
11682;BME280;5897;42.640;23.310;2022-07-04T00:23:23;94173.63;;;22.75;63.44
11682;BME280;5897;42.640;23.310;2022-07-04T00:25:50;94174.84;;;22.74;63.59
11682;BME280;5897;42.640;23.310;2022-07-04T00:28:16;94170.59;;;22.68;64.20
11682;BME280;5897;42.640;23.310;2022-07-04T00:30:44;94161.81;;;22.58;65.01
11682;BME280;5897;42.640;23.310;2022-07-04T00:33:12;94159.28;;;22.55;65.63
11682;BME280;5897;42.640;23.310;2022-07-04T00:35:39;94147.25;;;22.47;66.29
11682;BME280;5897;42.640;23.310;2022-07-04T00:38:06;94145.94;;;22.37;65.94
11682;BME280;5897;42.640;23.310;2022-07-04T00:40:33;94150.72;;;22.36;64.90
11682;BME280;5897;42.640;23.310;2022-07-04T00:43:01;94143.97;;;22.43;63.64
11682;BME280;5897;42.640;23.310;2022-07-04T00:45:28;94140.44;;;22.37;65.13
11682;BME280;5897;42.640;23.310;2022-07-04T00:47:56;94154.25;;;22.42;65.85
11682;BME280;5897;42.640;23.310;2022-07-04T00:50:23;94154.22;;;22.37;67.00
11682;BME280;5897;42.640;23.310;2022-07-04T00:52:51;94152.97;;;22.38;67.90
11682;BME280;5897;42.640;23.310;2022-07-04T00:55:18;94144.16;;;22.23;67.69
11682;BME280;5897;42.640;23.310;2022-07-04T00:57:46;94149.69;;;22.23;68.67
11682;BME280;5897;42.640;23.310;2022-07-04T01:00:13;94139.88;;;22.11;67.89
11682;BME280;5897;42.640;23.310;2022-07-04T01:02:40;94146.06;;;22.00;68.78
11682;BME280;5897;42.640;23.310;2022-07-04T01:05:08;94143.06;;;21.98;69.44
11682;BME280;5897;42.640;23.310;2022-07-04T01:07:35;94145.56;;;21.96;70.15
11682;BME280;5897;42.640;23.310;2022-07-04T01:10:02;94140.81;;;21.97;71.00
11682;BME280;5897;42.640;23.310;2022-07-04T01:12:30;94128.03;;;21.88;70.70
11682;BME280;5897;42.640;23.310;2022-07-04T01:14:57;94128.03;;;21.88;70.92
11682;BME280;5897;42.640;23.310;2022-07-04T01:17:24;94138.09;;;22.02;72.05
11682;BME280;5897;42.640;23.310;2022-07-04T01:19:50;94125.91;;;21.67;73.28
11682;BME280;5897;42.640;23.310;2022-07-04T01:22:19;94150.97;;;21.74;74.43
11682;BME280;5897;42.640;23.310;2022-07-04T01:24:47;94141.34;;;21.59;75.19
11682;BME280;5897;42.640;23.310;2022-07-04T01:27:14;94140.34;;;21.62;75.11
11682;BME280;5897;42.640;23.310;2022-07-04T01:29:41;94154.19;;;21.67;75.52
11682;BME280;5897;42.640;23.310;2022-07-04T01:32:09;94143.38;;;21.64;75.57
11682;BME280;5897;42.640;23.310;2022-07-04T01:34:35;94148.88;;;21.64;74.94
11682;BME280;5897;42.640;23.310;2022-07-04T01:37:04;94147.56;;;21.54;74.02
11682;BME280;5897;42.640;23.310;2022-07-04T01:39:33;94148.53;;;21.51;73.65
11682;BME280;5897;42.640;23.310;2022-07-04T01:42:00;94149.31;;;21.51;73.06
11682;BME280;5897;42.640;23.310;2022-07-04T01:44:26;94149.78;;;21.44;73.31
11682;BME280;5897;42.640;23.310;2022-07-04T01:46:53;94151.50;;;21.42;73.15
11682;BME280;5897;42.640;23.310;2022-07-04T01:49:20;94152.22;;;21.37;72.55
11682;BME280;5897;42.640;23.310;2022-07-04T01:51:48;94144.91;;;21.28;71.34
11682;BME280;5897;42.640;23.310;2022-07-04T01:54:15;94157.09;;;21.22;71.28
11682;BME280;5897;42.640;23.310;2022-07-04T01:56:43;94160.19;;;21.35;72.49
11682;BME280;5897;42.640;23.310;2022-07-04T01:59:10;94151.44;;;21.31;73.09
11682;BME280;5897;42.640;23.310;2022-07-04T02:01:37;94146.63;;;21.26;72.31
11682;BME280;5897;42.640;23.310;2022-07-04T02:04:06;94151.81;;;21.18;72.83
11682;BME280;5897;42.640;23.310;2022-07-04T02:06:33;94160.38;;;21.26;72.62
11682;BME280;5897;42.640;23.310;2022-07-04T02:09:00;94154.34;;;21.22;73.88
11682;BME280;5897;42.640;23.310;2022-07-04T02:11:45;94152.78;;;21.15;74.76
11682;BME280;5897;42.640;23.310;2022-07-04T02:14:26;94147.75;;;21.08;75.10
11682;BME280;5897;42.640;23.310;2022-07-04T02:16:52;94155.03;;;21.11;75.51
11682;BME280;5897;42.640;23.310;2022-07-04T02:19:19;94157.28;;;21.13;74.82
11682;BME280;5897;42.640;23.310;2022-07-04T02:21:46;94164.22;;;21.08;74.48
11682;BME280;5897;42.640;23.310;2022-07-04T02:24:13;94161.97;;;21.07;74.23
11682;BME280;5897;42.640;23.310;2022-07-04T02:26:39;94165.69;;;21.04;74.83
11682;BME280;5897;42.640;23.310;2022-07-04T02:29:08;94166.66;;;21.01;75.41
11682;BME280;5897;42.640;23.310;2022-07-04T02:31:34;94163.22;;;21.06;76.03
11682;BME280;5897;42.640;23.310;2022-07-04T02:34:01;94163.97;;;21.06;76.04
11682;BME280;5897;42.640;23.310;2022-07-04T02:36:28;94161.22;;;21.06;75.59
11682;BME280;5897;42.640;23.310;2022-07-04T02:38:54;94163.41;;;20.97;76.10
11682;BME280;5897;42.640;23.310;2022-07-04T02:41:21;94163.88;;;20.95;76.07
11682;BME280;5897;42.640;23.310;2022-07-04T02:43:48;94152.50;;;20.82;76.45
11682;BME280;5897;42.640;23.310;2022-07-04T02:46:16;94164.59;;;20.90;75.74
11682;BME280;5897;42.640;23.310;2022-07-04T02:48:43;94166.03;;;20.86;76.02
11682;BME280;5897;42.640;23.310;2022-07-04T02:51:09;94167.09;;;20.68;75.98
11682;BME280;5897;42.640;23.310;2022-07-04T02:53:36;94177.72;;;20.81;75.60
11682;BME280;5897;42.640;23.310;2022-07-04T02:56:03;94183.41;;;20.77;75.64
11682;BME280;5897;42.640;23.310;2022-07-04T02:58:30;94181.31;;;20.67;75.31
11682;BME280;5897;42.640;23.310;2022-07-04T03:00:57;94159.41;;;20.47;74.95
11682;BME280;5897;42.640;23.310;2022-07-04T03:03:26;94168.41;;;20.47;75.13
11682;BME280;5897;42.640;23.310;2022-07-04T03:05:53;94186.69;;;20.56;74.59
11682;BME280;5897;42.640;23.310;2022-07-04T03:08:19;94187.91;;;20.55;74.22
11682;BME280;5897;42.640;23.310;2022-07-04T03:10:48;94187.00;;;20.38;74.40
11682;BME280;5897;42.640;23.310;2022-07-04T03:13:15;94187.16;;;20.29;73.92
11682;BME280;5897;42.640;23.310;2022-07-04T03:15:42;94178.38;;;20.25;74.18
11682;BME280;5897;42.640;23.310;2022-07-04T03:18:09;94189.22;;;20.34;74.64
11682;BME280;5897;42.640;23.310;2022-07-04T03:20:37;94194.75;;;20.39;75.70
11682;BME280;5897;42.640;23.310;2022-07-04T03:23:04;94194.19;;;20.55;74.48
11682;BME280;5897;42.640;23.310;2022-07-04T03:25:31;94197.66;;;20.56;74.51
11682;BME280;5897;42.640;23.310;2022-07-04T03:27:58;94205.63;;;20.54;72.97
11682;BME280;5897;42.640;23.310;2022-07-04T03:30:24;94208.53;;;20.45;73.40
11682;BME280;5897;42.640;23.310;2022-07-04T03:32:51;94204.00;;;20.42;72.81
11682;BME280;5897;42.640;23.310;2022-07-04T03:35:18;94199.97;;;20.37;71.06
11682;BME280;5897;42.640;23.310;2022-07-04T03:37:46;94186.59;;;20.25;71.08
11682;BME280;5897;42.640;23.310;2022-07-04T03:40:13;94191.75;;;20.17;72.42
11682;BME280;5897;42.640;23.310;2022-07-04T03:42:40;94187.38;;;20.25;72.80
11682;BME280;5897;42.640;23.310;2022-07-04T03:45:07;94184.13;;;20.27;73.43
11682;BME280;5897;42.640;23.310;2022-07-04T03:47:34;94185.34;;;20.46;73.44
11682;BME280;5897;42.640;23.310;2022-07-04T03:50:01;94197.47;;;20.59;73.30
11682;BME280;5897;42.640;23.310;2022-07-04T03:52:28;94184.56;;;20.65;73.83
11682;BME280;5897;42.640;23.310;2022-07-04T03:54:56;94185.19;;;20.80;72.89
11682;BME280;5897;42.640;23.310;2022-07-04T03:57:23;94171.97;;;20.79;72.96
11682;BME280;5897;42.640;23.310;2022-07-04T03:59:50;94182.63;;;20.97;70.90
11682;BME280;5897;42.640;23.310;2022-07-04T04:02:17;94181.63;;;21.00;69.41
11682;BME280;5897;42.640;23.310;2022-07-04T04:04:43;94181.63;;;21.00;68.93
11682;BME280;5897;42.640;23.310;2022-07-04T04:07:28;94178.63;;;20.98;68.75
11682;BME280;5897;42.640;23.310;2022-07-04T04:09:56;94177.66;;;21.01;68.07
11682;BME280;5897;42.640;23.310;2022-07-04T04:12:22;94177.22;;;21.08;68.27
11682;BME280;5897;42.640;23.310;2022-07-04T04:14:49;94181.28;;;21.18;69.25
11682;BME280;5897;42.640;23.310;2022-07-04T04:17:16;94183.91;;;21.32;70.33
11682;BME280;5897;42.640;23.310;2022-07-04T04:19:42;94184.91;;;21.35;70.53
11682;BME280;5897;42.640;23.310;2022-07-04T04:22:09;94193.38;;;21.31;72.26
11682;BME280;5897;42.640;23.310;2022-07-04T04:24:36;94196.28;;;21.48;71.68
11682;BME280;5897;42.640;23.310;2022-07-04T04:27:04;94201.09;;;21.64;71.35
11682;BME280;5897;42.640;23.310;2022-07-04T04:29:31;94194.97;;;21.74;69.50
11682;BME280;5897;42.640;23.310;2022-07-04T04:31:58;94176.81;;;21.51;70.90
11682;BME280;5897;42.640;23.310;2022-07-04T04:34:25;94199.72;;;21.74;71.78
11682;BME280;5897;42.640;23.310;2022-07-04T04:36:51;94208.75;;;21.80;72.22
11682;BME280;5897;42.640;23.310;2022-07-04T04:39:18;94216.59;;;21.98;71.41
11682;BME280;5897;42.640;23.310;2022-07-04T04:41:45;94226.63;;;22.01;71.62
11682;BME280;5897;42.640;23.310;2022-07-04T04:44:13;94213.66;;;22.07;71.08
11682;BME280;5897;42.640;23.310;2022-07-04T04:46:40;94207.94;;;22.16;67.20
11682;BME280;5897;42.640;23.310;2022-07-04T04:49:06;94214.19;;;22.11;67.45
11682;BME280;5897;42.640;23.310;2022-07-04T04:51:33;94211.66;;;22.13;68.46
11682;BME280;5897;42.640;23.310;2022-07-04T04:54:00;94205.72;;;22.25;68.14
11682;BME280;5897;42.640;23.310;2022-07-04T04:56:27;94208.78;;;22.38;66.48
11682;BME280;5897;42.640;23.310;2022-07-04T04:58:53;94198.28;;;22.42;67.17
11682;BME280;5897;42.640;23.310;2022-07-04T05:01:22;94195.09;;;22.55;65.60
11682;BME280;5897;42.640;23.310;2022-07-04T05:03:48;94209.91;;;22.68;65.04
11682;BME280;5897;42.640;23.310;2022-07-04T05:06:15;94214.91;;;22.64;65.59
11682;BME280;5897;42.640;23.310;2022-07-04T05:08:43;94208.19;;;22.82;65.55
11682;BME280;5897;42.640;23.310;2022-07-04T05:11:10;94212.22;;;22.86;64.46
11682;BME280;5897;42.640;23.310;2022-07-04T05:13:37;94210.44;;;22.89;62.27
11682;BME280;5897;42.640;23.310;2022-07-04T05:16:04;94216.97;;;23.02;62.57
11682;BME280;5897;42.640;23.310;2022-07-04T05:18:32;94186.16;;;23.04;60.96
11682;BME280;5897;42.640;23.310;2022-07-04T05:20:59;94204.75;;;23.31;58.77
11682;BME280;5897;42.640;23.310;2022-07-04T05:23:25;94199.97;;;23.20;57.40
11682;BME280;5897;42.640;23.310;2022-07-04T05:25:52;94201.00;;;23.34;58.07
11682;BME280;5897;42.640;23.310;2022-07-04T05:28:19;94186.19;;;23.42;57.01
11682;BME280;5897;42.640;23.310;2022-07-04T05:30:46;94198.72;;;23.60;57.16
11682;BME280;5897;42.640;23.310;2022-07-04T05:33:12;94199.72;;;23.68;56.87
11682;BME280;5897;42.640;23.310;2022-07-04T05:35:41;94190.69;;;23.67;56.38
11682;BME280;5897;42.640;23.310;2022-07-04T05:38:08;94197.72;;;23.68;57.29
11682;BME280;5897;42.640;23.310;2022-07-04T05:40:34;94203.72;;;23.78;57.22
11682;BME280;5897;42.640;23.310;2022-07-04T05:43:01;94200.19;;;23.83;56.11
11682;BME280;5897;42.640;23.310;2022-07-04T05:45:28;94207.00;;;23.93;56.72
11682;BME280;5897;42.640;23.310;2022-07-04T05:47:54;94183.16;;;23.90;57.03
11682;BME280;5897;42.640;23.310;2022-07-04T05:50:21;94207.97;;;24.06;55.94
11682;BME280;5897;42.640;23.310;2022-07-04T05:52:49;94205.19;;;24.01;55.11
11682;BME280;5897;42.640;23.310;2022-07-04T05:55:16;94206.47;;;24.00;55.37
11682;BME280;5897;42.640;23.310;2022-07-04T05:57:43;94207.94;;;24.12;55.68
11682;BME280;5897;42.640;23.310;2022-07-04T06:00:11;94205.16;;;24.12;55.85
11682;BME280;5897;42.640;23.310;2022-07-04T06:02:38;94209.66;;;24.26;56.33
11682;BME280;5897;42.640;23.310;2022-07-04T06:05:05;94211.34;;;24.40;53.78
11682;BME280;5897;42.640;23.310;2022-07-04T06:07:32;94211.16;;;24.27;55.27
11682;BME280;5897;42.640;23.310;2022-07-04T06:10:00;94207.59;;;24.43;55.23
11682;BME280;5897;42.640;23.310;2022-07-04T06:12:27;94212.81;;;24.57;55.84
11682;BME280;5897;42.640;23.310;2022-07-04T06:14:53;94213.50;;;24.69;53.98
11682;BME280;5897;42.640;23.310;2022-07-04T06:17:20;94207.19;;;24.74;54.33
11682;BME280;5897;42.640;23.310;2022-07-04T06:19:47;94203.88;;;24.81;53.27
11682;BME280;5897;42.640;23.310;2022-07-04T06:22:13;94212.34;;;24.94;54.27
11682;BME280;5897;42.640;23.310;2022-07-04T06:24:40;94203.81;;;24.92;52.61
11682;BME280;5897;42.640;23.310;2022-07-04T06:27:08;94194.28;;;24.93;53.51
11682;BME280;5897;42.640;23.310;2022-07-04T06:29:35;94194.19;;;25.04;54.26
11682;BME280;5897;42.640;23.310;2022-07-04T06:32:02;94194.09;;;25.20;54.35
11682;BME280;5897;42.640;23.310;2022-07-04T06:34:29;94204.41;;;25.25;53.04
11682;BME280;5897;42.640;23.310;2022-07-04T06:37:13;94203.56;;;25.36;52.60
11682;BME280;5897;42.640;23.310;2022-07-04T06:39:40;94206.31;;;25.36;52.09
11682;BME280;5897;42.640;23.310;2022-07-04T06:42:08;94192.78;;;25.32;52.12
11682;BME280;5897;42.640;23.310;2022-07-04T06:44:35;94194.97;;;25.39;52.66
11682;BME280;5897;42.640;23.310;2022-07-04T06:47:02;94200.66;;;25.52;53.09
11682;BME280;5897;42.640;23.310;2022-07-04T06:49:29;94201.06;;;25.62;52.73
11682;BME280;5897;42.640;23.310;2022-07-04T06:51:55;94194.19;;;25.44;53.33
11682;BME280;5897;42.640;23.310;2022-07-04T06:54:22;94195.78;;;25.64;51.19
11682;BME280;5897;42.640;23.310;2022-07-04T06:56:49;94193.66;;;25.75;53.24
11682;BME280;5897;42.640;23.310;2022-07-04T06:59:17;94193.81;;;25.83;53.13
11682;BME280;5897;42.640;23.310;2022-07-04T07:01:44;94194.03;;;25.85;50.64
11682;BME280;5897;42.640;23.310;2022-07-04T07:04:11;94196.50;;;25.94;51.86
11682;BME280;5897;42.640;23.310;2022-07-04T07:06:38;94185.03;;;26.08;50.12
11682;BME280;5897;42.640;23.310;2022-07-04T07:09:04;94185.44;;;26.18;50.57
11682;BME280;5897;42.640;23.310;2022-07-04T07:11:31;94192.88;;;26.28;50.71
11682;BME280;5897;42.640;23.310;2022-07-04T07:13:58;94185.47;;;26.36;48.93
11682;BME280;5897;42.640;23.310;2022-07-04T07:16:26;94184.28;;;26.32;48.99
11682;BME280;5897;42.640;23.310;2022-07-04T07:18:53;94184.03;;;26.30;49.04
11682;BME280;5897;42.640;23.310;2022-07-04T07:21:19;94178.00;;;26.50;49.15
11682;BME280;5897;42.640;23.310;2022-07-04T07:23:46;94173.38;;;26.58;47.11
11682;BME280;5897;42.640;23.310;2022-07-04T07:26:13;94147.97;;;26.54;48.03
11682;BME280;5897;42.640;23.310;2022-07-04T07:28:40;94176.78;;;26.88;48.98
11682;BME280;5897;42.640;23.310;2022-07-04T07:31:07;94174.44;;;26.92;48.59
11682;BME280;5897;42.640;23.310;2022-07-04T07:33:35;94183.88;;;27.02;49.43
11682;BME280;5897;42.640;23.310;2022-07-04T07:36:02;94170.81;;;26.97;49.53
11682;BME280;5897;42.640;23.310;2022-07-04T07:38:29;94175.88;;;27.17;48.67
11682;BME280;5897;42.640;23.310;2022-07-04T07:40:56;94179.50;;;27.25;47.76
11682;BME280;5897;42.640;23.310;2022-07-04T07:43:22;94169.59;;;27.29;47.34
11682;BME280;5897;42.640;23.310;2022-07-04T07:45:51;94171.72;;;27.23;48.09
11682;BME280;5897;42.640;23.310;2022-07-04T07:48:18;94172.50;;;27.37;48.62
11682;BME280;5897;42.640;23.310;2022-07-04T07:50:46;94169.25;;;27.51;48.62
11682;BME280;5897;42.640;23.310;2022-07-04T07:53:13;94163.81;;;27.59;49.04
11682;BME280;5897;42.640;23.310;2022-07-04T07:55:41;94151.69;;;27.75;48.84
11682;BME280;5897;42.640;23.310;2022-07-04T07:58:08;94159.31;;;27.87;48.54
11682;BME280;5897;42.640;23.310;2022-07-04T08:00:34;94152.00;;;27.71;48.01
11682;BME280;5897;42.640;23.310;2022-07-04T08:03:01;94164.00;;;27.92;46.61
11682;BME280;5897;42.640;23.310;2022-07-04T08:05:46;94159.22;;;28.06;46.96
11682;BME280;5897;42.640;23.310;2022-07-04T08:08:13;94152.72;;;28.16;46.00
11682;BME280;5897;42.640;23.310;2022-07-04T08:10:40;94155.88;;;28.20;46.92
11682;BME280;5897;42.640;23.310;2022-07-04T08:13:07;94141.59;;;28.42;45.67
11682;BME280;5897;42.640;23.310;2022-07-04T08:15:36;94143.63;;;28.42;46.66
11682;BME280;5897;42.640;23.310;2022-07-04T08:18:03;94152.88;;;28.70;45.82
11682;BME280;5897;42.640;23.310;2022-07-04T08:20:30;94153.34;;;28.95;45.78
11682;BME280;5897;42.640;23.310;2022-07-04T08:22:58;94156.09;;;29.08;44.83
11682;BME280;5897;42.640;23.310;2022-07-04T08:25:24;94155.84;;;29.19;44.86
11682;BME280;5897;42.640;23.310;2022-07-04T08:27:51;94141.19;;;28.98;44.16
11682;BME280;5897;42.640;23.310;2022-07-04T08:30:18;94143.66;;;29.22;43.86
11682;BME280;5897;42.640;23.310;2022-07-04T08:32:45;94143.13;;;29.44;42.96
11682;BME280;5897;42.640;23.310;2022-07-04T08:35:12;94140.53;;;29.46;44.37
11682;BME280;5897;42.640;23.310;2022-07-04T08:37:39;94145.75;;;29.49;43.35
11682;BME280;5897;42.640;23.310;2022-07-04T08:40:09;94139.94;;;29.60;44.48
11682;BME280;5897;42.640;23.310;2022-07-04T08:42:38;94126.06;;;29.68;42.80
11682;BME280;5897;42.640;23.310;2022-07-04T08:45:06;94146.63;;;29.85;41.54
11682;BME280;5897;42.640;23.310;2022-07-04T08:47:34;94127.38;;;29.95;42.38
11682;BME280;5897;42.640;23.310;2022-07-04T08:50:08;94131.25;;;29.92;43.00
11682;BME280;5897;42.640;23.310;2022-07-04T08:52:39;94131.22;;;30.12;42.16
11682;BME280;5897;42.640;23.310;2022-07-04T08:55:09;94141.00;;;30.06;43.27
11682;BME280;5897;42.640;23.310;2022-07-04T08:57:55;94135.78;;;30.02;43.78
11682;BME280;5897;42.640;23.310;2022-07-04T09:00:40;94131.72;;;30.03;43.09
11682;BME280;5897;42.640;23.310;2022-07-04T09:03:08;94132.03;;;30.20;43.54
11682;BME280;5897;42.640;23.310;2022-07-04T09:05:35;94129.19;;;30.13;43.09
11682;BME280;5897;42.640;23.310;2022-07-04T09:08:03;94129.66;;;30.32;43.03
11682;BME280;5897;42.640;23.310;2022-07-04T09:10:32;94136.91;;;30.63;42.13
11682;BME280;5897;42.640;23.310;2022-07-04T09:13:00;94131.53;;;30.65;41.85
11682;BME280;5897;42.640;23.310;2022-07-04T09:15:28;94131.25;;;30.91;43.09
11682;BME280;5897;42.640;23.310;2022-07-04T09:17:55;94125.13;;;30.92;41.15
11682;BME280;5897;42.640;23.310;2022-07-04T09:20:23;94119.13;;;30.88;41.22
11682;BME280;5897;42.640;23.310;2022-07-04T09:22:51;94129.97;;;30.99;40.76
11682;BME280;5897;42.640;23.310;2022-07-04T09:25:20;94127.41;;;31.09;39.24
11682;BME280;5897;42.640;23.310;2022-07-04T09:27:49;94123.00;;;31.21;39.31
11682;BME280;5897;42.640;23.310;2022-07-04T09:30:18;94132.28;;;31.31;39.24
11682;BME280;5897;42.640;23.310;2022-07-04T09:32:47;94137.88;;;31.31;39.17
11682;BME280;5897;42.640;23.310;2022-07-04T09:35:17;94120.56;;;31.32;38.61
11682;BME280;5897;42.640;23.310;2022-07-04T09:37:46;94117.44;;;31.66;39.37
11682;BME280;5897;42.640;23.310;2022-07-04T09:40:24;94106.28;;;31.66;38.88
11682;BME280;5897;42.640;23.310;2022-07-04T09:42:54;94121.00;;;31.74;40.62
11682;BME280;5897;42.640;23.310;2022-07-04T09:45:21;94102.56;;;31.78;39.10
11682;BME280;5897;42.640;23.310;2022-07-04T09:47:50;94116.84;;;32.05;40.04
11682;BME280;5897;42.640;23.310;2022-07-04T09:50:19;94105.50;;;32.10;39.32
11682;BME280;5897;42.640;23.310;2022-07-04T09:52:47;94109.78;;;32.26;40.09
11682;BME280;5897;42.640;23.310;2022-07-04T09:55:23;94116.09;;;32.27;37.86
11682;BME280;5897;42.640;23.310;2022-07-04T09:57:50;94111.41;;;32.37;38.81
11682;BME280;5897;42.640;23.310;2022-07-04T10:00:24;94092.44;;;32.28;38.96
11682;BME280;5897;42.640;23.310;2022-07-04T10:02:53;94114.69;;;32.65;37.90
11682;BME280;5897;42.640;23.310;2022-07-04T10:05:23;94112.63;;;32.66;38.23
11682;BME280;5897;42.640;23.310;2022-07-04T10:07:50;94099.00;;;32.70;38.92
11682;BME280;5897;42.640;23.310;2022-07-04T10:10:22;94111.75;;;33.03;35.71
11682;BME280;5897;42.640;23.310;2022-07-04T10:12:50;94100.88;;;33.07;36.11
11682;BME280;5897;42.640;23.310;2022-07-04T10:15:17;94118.47;;;33.39;36.34
11682;BME280;5897;42.640;23.310;2022-07-04T10:17:46;94112.09;;;33.39;35.15
11682;BME280;5897;42.640;23.310;2022-07-04T10:20:13;94116.38;;;33.40;34.46
11682;BME280;5897;42.640;23.310;2022-07-04T10:22:40;94113.59;;;33.40;35.93
11682;BME280;5897;42.640;23.310;2022-07-04T10:25:09;94115.13;;;33.33;36.11
11682;BME280;5897;42.640;23.310;2022-07-04T10:27:36;94109.00;;;33.52;35.73
11682;BME280;5897;42.640;23.310;2022-07-04T10:30:05;94109.75;;;33.77;34.46
11682;BME280;5897;42.640;23.310;2022-07-04T10:32:33;94114.22;;;34.04;33.39
11682;BME280;5897;42.640;23.310;2022-07-04T10:35:03;94107.28;;;34.05;32.98
11682;BME280;5897;42.640;23.310;2022-07-04T10:40:41;94095.88;;;34.45;33.87
11682;BME280;5897;42.640;23.310;2022-07-04T10:46:43;94098.25;;;34.82;33.70
11682;BME280;5897;42.640;23.310;2022-07-04T10:49:19;94096.84;;;34.74;32.23
11682;BME280;5897;42.640;23.310;2022-07-04T10:51:48;94097.25;;;34.87;31.48
11682;BME280;5897;42.640;23.310;2022-07-04T10:54:17;94094.28;;;35.12;31.14
11682;BME280;5897;42.640;23.310;2022-07-04T10:56:46;94076.78;;;34.77;30.41
11682;BME280;5897;42.640;23.310;2022-07-04T10:59:16;94071.19;;;35.04;32.05
11682;BME280;5897;42.640;23.310;2022-07-04T11:01:50;94083.22;;;35.14;31.30
11682;BME280;5897;42.640;23.310;2022-07-04T11:04:46;94077.84;;;35.08;31.36
11682;BME280;5897;42.640;23.310;2022-07-04T11:07:14;94052.34;;;34.70;32.47
11682;BME280;5897;42.640;23.310;2022-07-04T11:09:42;94076.16;;;35.22;31.54
11682;BME280;5897;42.640;23.310;2022-07-04T11:12:09;94059.28;;;35.39;31.90
11682;BME280;5897;42.640;23.310;2022-07-04T11:14:40;94062.97;;;35.78;31.24
11682;BME280;5897;42.640;23.310;2022-07-04T11:17:08;94065.19;;;35.79;30.43
11682;BME280;5897;42.640;23.310;2022-07-04T11:19:37;94073.75;;;35.36;30.16
11682;BME280;5897;42.640;23.310;2022-07-04T11:22:06;94052.44;;;35.06;30.02
11682;BME280;5897;42.640;23.310;2022-07-04T11:24:38;94064.63;;;34.92;29.39
11682;BME280;5897;42.640;23.310;2022-07-04T11:27:08;94066.91;;;35.03;29.67
11682;BME280;5897;42.640;23.310;2022-07-04T11:29:35;94064.28;;;34.88;31.15
11682;BME280;5897;42.640;23.310;2022-07-04T11:32:02;94071.09;;;34.85;30.72
11682;BME280;5897;42.640;23.310;2022-07-04T11:34:32;94070.13;;;34.99;30.56
11682;BME280;5897;42.640;23.310;2022-07-04T11:37:02;94065.44;;;35.28;30.77
11682;BME280;5897;42.640;23.310;2022-07-04T11:39:29;94054.06;;;35.72;29.68
11682;BME280;5897;42.640;23.310;2022-07-04T11:41:57;94051.16;;;35.89;28.73
11682;BME280;5897;42.640;23.310;2022-07-04T11:44:42;94047.81;;;36.19;30.09
11682;BME280;5897;42.640;23.310;2022-07-04T11:47:33;94043.03;;;36.02;30.03
11682;BME280;5897;42.640;23.310;2022-07-04T11:50:05;94033.09;;;35.92;29.30
11682;BME280;5897;42.640;23.310;2022-07-04T11:52:39;94041.13;;;36.05;30.67
11682;BME280;5897;42.640;23.310;2022-07-04T11:55:08;94034.00;;;35.94;29.83
11682;BME280;5897;42.640;23.310;2022-07-04T11:57:38;94032.81;;;35.88;29.45
11682;BME280;5897;42.640;23.310;2022-07-04T12:00:06;94029.44;;;36.08;29.98
11682;BME280;5897;42.640;23.310;2022-07-04T12:02:35;94017.75;;;36.31;29.26
11682;BME280;5897;42.640;23.310;2022-07-04T12:05:04;94012.59;;;36.46;29.00
11682;BME280;5897;42.640;23.310;2022-07-04T12:07:32;94004.25;;;36.58;28.47
11682;BME280;5897;42.640;23.310;2022-07-04T12:10:07;94007.53;;;36.64;28.98
11682;BME280;5897;42.640;23.310;2022-07-04T12:12:51;93997.91;;;36.76;27.40
11682;BME280;5897;42.640;23.310;2022-07-04T12:15:19;94003.84;;;36.33;29.92
11682;BME280;5897;42.640;23.310;2022-07-04T12:17:50;94008.72;;;36.23;28.96
11682;BME280;5897;42.640;23.310;2022-07-04T12:20:18;94004.72;;;36.26;28.82
11682;BME280;5897;42.640;23.310;2022-07-04T12:22:50;94008.72;;;36.42;29.23
11682;BME280;5897;42.640;23.310;2022-07-04T12:25:23;94005.88;;;36.51;27.56
11682;BME280;5897;42.640;23.310;2022-07-04T12:27:58;94003.25;;;36.44;27.44
11682;BME280;5897;42.640;23.310;2022-07-04T12:30:26;94005.47;;;36.36;28.85
11682;BME280;5897;42.640;23.310;2022-07-04T12:32:57;93999.66;;;36.53;27.80
11682;BME280;5897;42.640;23.310;2022-07-04T12:35:45;93989.91;;;36.35;29.28
11682;BME280;5897;42.640;23.310;2022-07-04T12:38:15;93995.53;;;36.16;30.04
11682;BME280;5897;42.640;23.310;2022-07-04T12:40:56;93991.97;;;36.15;29.87
11682;BME280;5897;42.640;23.310;2022-07-04T12:43:26;93995.25;;;36.50;30.23
11682;BME280;5897;42.640;23.310;2022-07-04T12:45:54;93991.09;;;36.41;29.18
11682;BME280;5897;42.640;23.310;2022-07-04T12:48:26;93988.75;;;36.38;28.83
11682;BME280;5897;42.640;23.310;2022-07-04T12:51:08;93979.13;;;36.22;29.38
11682;BME280;5897;42.640;23.310;2022-07-04T12:53:36;93981.63;;;36.27;28.16
11682;BME280;5897;42.640;23.310;2022-07-04T12:56:03;93982.22;;;36.45;29.62
11682;BME280;5897;42.640;23.310;2022-07-04T12:58:31;93982.94;;;36.36;29.65
11682;BME280;5897;42.640;23.310;2022-07-04T13:00:58;93979.69;;;36.58;29.54
11682;BME280;5897;42.640;23.310;2022-07-04T13:03:24;93981.16;;;36.59;29.44
11682;BME280;5897;42.640;23.310;2022-07-04T13:05:51;93980.28;;;36.28;29.93
11682;BME280;5897;42.640;23.310;2022-07-04T13:08:18;93974.34;;;35.86;29.51
11682;BME280;5897;42.640;23.310;2022-07-04T13:10:45;93955.75;;;35.36;30.82
11682;BME280;5897;42.640;23.310;2022-07-04T13:13:11;93978.69;;;35.51;31.48